Terminal Aerodrome Forecast
Issued by NWS

Home | Current Version | Previous Version | Text Only | Print | Product List | Glossary On
Versions: 1 2 3 4 5 6 7 8 9 10 11 12 13 14 15 16 17 18 19 20
000
FTUS43 KPAH 161057 AAC
TAFCGI
TAF AMD
KCGI 161057Z 1611/1706 VRB03KT P6SM OVC008
     FM161500 VRB04KT P6SM SCT015 OVC025
     FM162000 13005KT P6SM BKN050=

USA.gov is the U.S. government's official web portal to all federal, state and local government web resources and services.